createdAt,value
2022-09-01T00:00:11.562Z,2.12
2022-09-01T00:01:10.040Z,2.12
2022-09-01T00:02:11.736Z,2.12
2022-09-01T00:03:09.498Z,2.12
2022-09-01T00:04:15.365Z,2.51
2022-09-01T00:05:06.845Z,2.51
2022-09-01T00:06:15.176Z,3.33
2022-09-01T00:07:03.086Z,3.33
2022-09-01T00:08:10.496Z,2.32
2022-09-01T00:09:11.543Z,2.32
2022-09-01T00:10:07.414Z,1.86
2022-09-01T00:11:09.047Z,1.86
2022-09-01T00:12:12.381Z,8.69
2022-09-01T00:13:10.244Z,8.69
2022-09-01T00:14:29.417Z,1.93
2022-09-01T00:15:07.885Z,1.23
2022-09-01T00:16:10.104Z,1.42
2022-09-01T00:17:02.417Z,2.64
2022-09-01T00:18:10.252Z,3.47
2022-09-01T00:19:07.291Z,3.47
2022-09-01T00:20:10.167Z,2.42
2022-09-01T00:21:09.342Z,2.42
2022-09-01T00:22:12.982Z,3.52
2022-09-01T00:23:03.094Z,3.52
2022-09-01T00:24:12.203Z,3.84
2022-09-01T00:25:13.698Z,3.57
2022-09-01T00:26:08.590Z,2.84
2022-09-01T00:27:10.024Z,2.12
2022-09-01T00:28:07.808Z,4.06
2022-09-01T00:29:11.338Z,3.31
2022-09-01T00:30:12.643Z,1.3
2022-09-01T00:31:03.093Z,1.3
2022-09-01T00:32:10.157Z,1.8
2022-09-01T00:33:08.353Z,3.35
2022-09-01T00:34:13.218Z,10.54
2022-09-01T00:35:11.816Z,1.32
2022-09-01T00:36:03.347Z,2.17
2022-09-01T00:37:08.629Z,3.09
2022-09-01T00:38:11.198Z,3.09
2022-09-01T00:39:13.585Z,2.4
2022-09-01T00:40:09.479Z,2.4
2022-09-01T00:41:10.138Z,3.4
2022-09-01T00:42:11.898Z,3.4
2022-09-01T00:43:11.068Z,3.32
2022-09-01T00:44:11.045Z,3.32
2022-09-01T00:45:11.370Z,2.05
2022-09-01T00:46:09.033Z,1.78
2022-09-01T00:47:11.630Z,1.78
2022-09-01T00:48:03.906Z,1.78
2022-09-01T00:49:10.470Z,4.56
2022-09-01T00:50:06.136Z,4.56
2022-09-01T00:51:10.707Z,2.94
2022-09-01T00:52:08.600Z,2.94
2022-09-01T00:53:09.048Z,1.16
2022-09-01T00:54:05.921Z,1.16
2022-09-01T00:55:10.148Z,1.49
2022-09-01T00:56:08.456Z,1.98
2022-09-01T00:57:10.829Z,1.73
2022-09-01T00:58:05.895Z,1.73
2022-09-01T00:59:08.164Z,2.38
2022-09-01T01:00:15.153Z,1.36
2022-09-01T01:01:03.389Z,1.36
2022-09-01T01:02:08.044Z,3.71
2022-09-01T01:03:11.170Z,8.96
2022-09-01T01:04:06.705Z,8.96
2022-09-01T01:05:05.997Z,3.31
2022-09-01T01:06:13.229Z,1.74
2022-09-01T01:07:12.275Z,3.78
2022-09-01T01:08:09.835Z,3.78
2022-09-01T01:09:14.818Z,3.26
2022-09-01T01:10:10.354Z,2.69
2022-09-01T01:11:12.193Z,2.28
2022-09-01T01:12:11.576Z,2.28
2022-09-01T01:13:13.359Z,2.56
2022-09-01T01:14:08.862Z,2.81
2022-09-01T01:15:09.305Z,2.97
2022-09-01T01:16:14.435Z,1.84
2022-09-01T01:17:04.257Z,1.84
2022-09-01T01:18:10.229Z,2.22
2022-09-01T01:19:07.835Z,2.22
2022-09-01T01:20:11.112Z,1.16
2022-09-01T01:21:09.102Z,1.16
2022-09-01T01:22:02.563Z,4.18
2022-09-01T01:23:08.720Z,2.06
2022-09-01T01:24:14.506Z,1.62
2022-09-01T01:25:10.456Z,2.52
2022-09-01T01:26:10.814Z,3.02
2022-09-01T01:27:10.064Z,3.02
2022-09-01T01:28:10.628Z,1.99
2022-09-01T01:29:08.704Z,1.99
2022-09-01T01:30:12.289Z,2.3
2022-09-01T01:31:10.332Z,2.3
2022-09-01T01:32:07.520Z,2.3
2022-09-01T01:34:09.638Z,1.55
2022-09-01T01:35:11.885Z,0.81
2022-09-01T01:36:10.611Z,3.22
2022-09-01T01:37:14.918Z,3.22
2022-09-01T01:38:11.978Z,2.56
2022-09-01T01:39:13.581Z,2.56
2022-09-01T01:40:04.596Z,2.56
2022-09-01T01:41:12.624Z,4.84
2022-09-01T01:42:07.777Z,1.81
2022-09-01T01:43:11.796Z,3.18
2022-09-01T01:44:01.885Z,2.87
2022-09-01T01:45:07.555Z,2.72
2022-09-01T01:46:09.867Z,3.11
2022-09-01T01:47:10.185Z,3.11
2022-09-01T01:48:08.224Z,1.75
2022-09-01T01:49:11.678Z,1.92
2022-09-01T01:50:11.050Z,1.92
2022-09-01T01:51:09.778Z,1.21
2022-09-01T01:52:11.149Z,3.41
2022-09-01T01:53:03.835Z,3.41
2022-09-01T01:54:11.402Z,1.4
2022-09-01T01:55:06.079Z,1.4
2022-09-01T01:56:10.613Z,2.25
2022-09-01T01:57:12.461Z,2.25
2022-09-01T01:58:09.513Z,2.49
2022-09-01T01:59:08.711Z,3.39
2022-09-01T02:00:10.518Z,3.01
2022-09-01T02:01:06.901Z,3.01
2022-09-01T02:02:09.202Z,2.67
2022-09-01T02:03:09.343Z,2.66
2022-09-01T02:04:10.407Z,2.66
2022-09-01T02:05:09.501Z,2.09
2022-09-01T02:06:10.198Z,2.48
2022-09-01T02:07:12.664Z,3.17
2022-09-01T02:08:05.834Z,2.84
2022-09-01T02:09:11.566Z,3.12
2022-09-01T02:10:05.459Z,1.9
2022-09-01T02:11:12.677Z,3.18
2022-09-01T02:12:05.453Z,3.18
2022-09-01T02:13:11.097Z,2.28
2022-09-01T02:14:12.435Z,2.28
2022-09-01T02:15:07.763Z,2.91
2022-09-01T02:16:08.413Z,4.12
2022-09-01T02:17:03.427Z,4.12
2022-09-01T02:18:19.273Z,2.65
2022-09-01T02:19:02.786Z,2.65
2022-09-01T02:20:10.667Z,2.75
2022-09-01T02:21:10.580Z,2.75
2022-09-01T02:22:14.181Z,2.69
2022-09-01T02:23:10.955Z,4.03
2022-09-01T02:24:11.616Z,4.03
2022-09-01T02:25:08.626Z,4.03
2022-09-01T02:26:18.255Z,2.15
2022-09-01T02:27:09.136Z,2.15
2022-09-01T02:28:11.412Z,3.99
2022-09-01T02:29:10.155Z,4.25
2022-09-01T02:30:12.690Z,2.58
2022-09-01T02:31:09.384Z,2.58
2022-09-01T02:32:11.024Z,3.09
2022-09-01T02:33:11.283Z,3.23
2022-09-01T02:34:03.340Z,3.23
2022-09-01T02:35:14.369Z,3.97
2022-09-01T02:36:04.825Z,3.97
2022-09-01T02:37:12.231Z,3.18
2022-09-01T02:38:04.153Z,3.18
2022-09-01T02:39:15.087Z,3.23
2022-09-01T02:40:04.553Z,3.23
2022-09-01T02:41:12.018Z,2.25
2022-09-01T02:42:10.429Z,2.25
2022-09-01T02:43:09.111Z,2.98
2022-09-01T02:44:02.701Z,1.89
2022-09-01T02:45:11.878Z,1.71
2022-09-01T02:46:09.077Z,1.97
2022-09-01T02:47:04.214Z,2.21
2022-09-01T02:48:09.263Z,1.99
2022-09-01T02:49:05.538Z,1.99
2022-09-01T02:50:05.817Z,3.24
2022-09-01T02:51:09.731Z,3.24
2022-09-01T02:52:09.606Z,3.02
2022-09-01T02:53:08.972Z,2.42
2022-09-01T02:54:11.344Z,3.56
2022-09-01T02:55:11.839Z,3.56
2022-09-01T02:56:11.639Z,2.23
2022-09-01T02:57:08.556Z,2.23
2022-09-01T02:58:12.334Z,3.35
2022-09-01T02:59:10.735Z,3.35
2022-09-01T03:00:09.839Z,3.46
2022-09-01T03:01:12.997Z,5.24
2022-09-01T03:02:11.428Z,5.24
2022-09-01T03:03:15.096Z,3.26
2022-09-01T03:04:10.899Z,3.53
2022-09-01T03:05:12.073Z,2.26
2022-09-01T03:06:08.074Z,2.26
2022-09-01T03:07:10.104Z,1.84
2022-09-01T03:08:05.542Z,1.7
2022-09-01T03:09:03.234Z,1.7
2022-09-01T03:10:06.955Z,1.96
2022-09-01T03:11:12.957Z,1.96
2022-09-01T03:12:04.270Z,1.96
2022-09-01T03:13:12.557Z,2.97
2022-09-01T03:14:10.402Z,4.44
2022-09-01T03:15:03.150Z,4.11
2022-09-01T03:16:15.150Z,2.34
2022-09-01T03:17:03.794Z,2.87
2022-09-01T03:18:10.745Z,2.54
2022-09-01T03:19:16.082Z,4.66
2022-09-01T03:20:07.270Z,4.66
2022-09-01T03:21:09.160Z,3.29
2022-09-01T03:22:09.324Z,1.56
2022-09-01T03:23:09.855Z,1.56
2022-09-01T03:24:10.650Z,2.39
2022-09-01T03:25:07.349Z,3.66
2022-09-01T03:26:10.152Z,2.25
2022-09-01T03:27:09.595Z,2.25
2022-09-01T03:28:12.789Z,3.83
2022-09-01T03:29:12.592Z,4.01
2022-09-01T03:30:02.344Z,4.01
2022-09-01T03:31:10.636Z,1.88
2022-09-01T03:32:09.726Z,1.88
2022-09-01T03:33:09.478Z,3.4
2022-09-01T03:34:08.405Z,3.94
2022-09-01T03:35:13.192Z,3.84
2022-09-01T03:36:15.306Z,3.84
2022-09-01T03:37:02.740Z,3.24
2022-09-01T03:38:08.516Z,2.11
2022-09-01T03:39:16.726Z,2.11
2022-09-01T03:40:09.290Z,3.49
2022-09-01T03:41:10.573Z,2.24
2022-09-01T03:42:09.350Z,3.43
2022-09-01T03:43:08.873Z,3.15
2022-09-01T03:44:12.181Z,3.15
2022-09-01T03:45:11.258Z,5.04
2022-09-01T03:46:11.868Z,5.04
2022-09-01T03:47:12.080Z,2.44
2022-09-01T03:48:09.405Z,2.81
2022-09-01T03:49:07.671Z,4.64
2022-09-01T03:50:10.023Z,5.09
2022-09-01T03:51:04.323Z,4.18
2022-09-01T03:52:11.737Z,4.18
2022-09-01T03:53:07.523Z,2.18
2022-09-01T03:54:11.700Z,2.18
2022-09-01T03:55:02.961Z,3
2022-09-01T03:56:07.941Z,4.53
2022-09-01T03:57:10.059Z,2.4
2022-09-01T03:58:10.101Z,2.4
2022-09-01T03:59:10.888Z,3.2
2022-09-01T04:00:06.145Z,3.2
2022-09-01T04:01:13.969Z,1.94
2022-09-01T04:02:09.889Z,1.94
2022-09-01T04:03:09.623Z,2.84
2022-09-01T04:04:04.054Z,1.93
2022-09-01T04:05:14.925Z,2.66
2022-09-01T04:06:02.681Z,2.66
2022-09-01T04:07:08.890Z,1.93
2022-09-01T04:08:08.613Z,3.45
2022-09-01T04:09:12.868Z,4.82
2022-09-01T04:10:11.071Z,4.82
2022-09-01T04:11:12.082Z,2.41
2022-09-01T04:12:05.306Z,2.41
2022-09-01T04:13:10.349Z,4.07
2022-09-01T04:14:08.722Z,4.07
2022-09-01T04:15:09.849Z,3.24
2022-09-01T04:16:04.074Z,3.24
2022-09-01T04:17:20.223Z,5.02
2022-09-01T04:18:02.355Z,5.02
2022-09-01T04:19:11.160Z,3.25
2022-09-01T04:20:10.049Z,3.25
2022-09-01T04:21:07.794Z,2.72
2022-09-01T04:22:10.305Z,2.72
2022-09-01T04:23:08.466Z,3.87
2022-09-01T04:24:15.111Z,2.95
2022-09-01T04:25:14.141Z,2.95
2022-09-01T04:26:03.090Z,5.7
2022-09-01T04:27:06.654Z,4.22
2022-09-01T04:28:10.558Z,4.22
2022-09-01T04:29:05.511Z,2.22
2022-09-01T04:30:10.429Z,4.5
2022-09-01T04:31:10.927Z,2.47
2022-09-01T04:32:11.190Z,2.47
2022-09-01T04:33:10.535Z,2.86
2022-09-01T04:34:14.543Z,4.21
2022-09-01T04:35:07.287Z,4.21
2022-09-01T04:36:10.795Z,3
2022-09-01T04:37:08.921Z,3.69
2022-09-01T04:38:12.366Z,3.69
2022-09-01T04:39:03.018Z,3.69
2022-09-01T04:40:06.821Z,2.75
2022-09-01T04:41:05.465Z,2.75
2022-09-01T04:42:09.405Z,2.72
2022-09-01T04:43:08.216Z,3.18
2022-09-01T04:44:11.769Z,5.08
2022-09-01T04:45:10.608Z,5.08
2022-09-01T04:46:14.882Z,1.89
2022-09-01T04:47:07.540Z,1.89
2022-09-01T04:48:10.234Z,1.73
2022-09-01T04:49:09.245Z,1.73
2022-09-01T04:50:06.910Z,3.45
2022-09-01T04:51:09.597Z,3.11
2022-09-01T04:52:10.734Z,3.11
2022-09-01T04:53:11.736Z,2.19
2022-09-01T04:54:12.195Z,3.52
2022-09-01T04:55:12.164Z,3.52
2022-09-01T04:56:09.871Z,2.62
2022-09-01T04:57:09.099Z,9.22
2022-09-01T04:58:10.447Z,3.85
2022-09-01T04:59:10.080Z,3.85
2022-09-01T05:00:10.377Z,2.79
2022-09-01T05:01:11.245Z,2.48
2022-09-01T05:02:08.953Z,3.69
2022-09-01T05:03:12.771Z,4.28
2022-09-01T05:04:10.553Z,8.68
2022-09-01T05:05:09.227Z,3.81
2022-09-01T05:06:03.264Z,3.81
2022-09-01T05:07:11.591Z,5.94
2022-09-01T05:08:02.941Z,5.94
2022-09-01T05:09:14.794Z,2.78
2022-09-01T05:10:02.527Z,2.78
2022-09-01T05:11:08.900Z,3.64
2022-09-01T05:12:15.808Z,3.02
2022-09-01T05:13:10.208Z,3.02
2022-09-01T05:14:09.699Z,3.05
2022-09-01T05:15:07.862Z,3.05
2022-09-01T05:16:11.568Z,4.15
2022-09-01T05:17:10.138Z,4.15
2022-09-01T05:18:09.239Z,3.55
2022-09-01T05:19:11.152Z,3.4
2022-09-01T05:20:16.844Z,4.33
2022-09-01T05:21:06.099Z,4.33
2022-09-01T05:22:07.614Z,2.81
2022-09-01T05:23:09.800Z,3.72
2022-09-01T05:24:11.576Z,4.65
2022-09-01T05:25:10.192Z,4.65
2022-09-01T05:26:12.116Z,2.62
2022-09-01T05:27:09.374Z,2.62
2022-09-01T05:28:11.785Z,1.67
2022-09-01T05:29:09.429Z,1.67
2022-09-01T05:30:11.850Z,2.31
2022-09-01T05:31:11.224Z,2.61
2022-09-01T05:32:09.344Z,2.61
2022-09-01T05:33:08.464Z,2.45
2022-09-01T05:34:14.027Z,2.74
2022-09-01T05:35:08.990Z,2.29
2022-09-01T05:36:11.819Z,4.61
2022-09-01T05:37:12.658Z,4.61
2022-09-01T05:38:09.382Z,2.15
2022-09-01T05:39:09.305Z,2.79
2022-09-01T05:40:06.100Z,2.12
2022-09-01T05:41:12.129Z,2.12
2022-09-01T05:42:10.233Z,2.51
2022-09-01T05:43:09.319Z,4.42
2022-09-01T05:44:08.080Z,4.42
2022-09-01T05:45:11.048Z,2.89
2022-09-01T05:46:11.766Z,2.39
2022-09-01T05:47:04.684Z,2.39
2022-09-01T05:48:12.451Z,3.41
2022-09-01T05:49:11.011Z,3.41
2022-09-01T05:50:14.176Z,3.33
2022-09-01T05:51:05.834Z,3.33
2022-09-01T05:52:06.643Z,3.26
2022-09-01T05:53:13.797Z,3.26
2022-09-01T05:54:07.858Z,2.45
2022-09-01T05:55:09.237Z,3.65
2022-09-01T05:56:04.787Z,3.65
2022-09-01T05:57:23.741Z,3.3
2022-09-01T05:58:10.679Z,3.3
2022-09-01T05:59:25.962Z,1.91
2022-09-01T06:00:08.410Z,1.91
2022-09-01T06:01:08.904Z,3.84
2022-09-01T06:02:08.535Z,3.84
2022-09-01T06:03:09.933Z,2.8
2022-09-01T06:04:07.395Z,2.8
2022-09-01T06:05:11.178Z,3.02
2022-09-01T06:06:08.791Z,3.19
2022-09-01T06:07:11.814Z,2.42
2022-09-01T06:08:03.319Z,2.42
2022-09-01T06:09:05.083Z,2.3
2022-09-01T06:10:10.779Z,3.07
2022-09-01T06:11:09.902Z,3.06
2022-09-01T06:12:10.102Z,3.18
2022-09-01T06:13:11.699Z,3.05
2022-09-01T06:14:09.484Z,2.54
2022-09-01T06:15:06.474Z,2.54
2022-09-01T06:16:10.359Z,2.27
2022-09-01T06:17:10.259Z,2.51
2022-09-01T06:18:10.205Z,2.51
2022-09-01T06:19:12.587Z,2.67
2022-09-01T06:20:11.215Z,2.67
2022-09-01T06:21:06.071Z,3.87
2022-09-01T06:22:13.350Z,3.87
2022-09-01T06:23:08.799Z,2.69
2022-09-01T06:24:10.717Z,2.69
2022-09-01T06:25:08.927Z,2.69
2022-09-01T06:26:08.397Z,2.94
2022-09-01T06:27:09.469Z,2.94
2022-09-01T06:28:08.230Z,2.94
2022-09-01T06:29:04.008Z,4.06
2022-09-01T06:30:11.686Z,3.11
2022-09-01T06:31:12.374Z,3.11
2022-09-01T06:32:03.700Z,8.38
2022-09-01T06:33:13.111Z,2.56
2022-09-01T06:34:12.262Z,2.47
2022-09-01T06:35:12.760Z,2.44
2022-09-01T06:36:08.113Z,3.46
2022-09-01T06:37:14.857Z,5.31
2022-09-01T06:38:03.457Z,5.31
2022-09-01T06:39:11.942Z,1.88
2022-09-01T06:40:11.013Z,2.06
2022-09-01T06:41:09.399Z,1.97
2022-09-01T06:42:08.401Z,3.18
2022-09-01T06:43:11.602Z,2.62
2022-09-01T06:44:12.439Z,1.77
2022-09-01T06:45:09.452Z,3.51
2022-09-01T06:46:05.580Z,3.51
2022-09-01T06:47:10.588Z,3.55
2022-09-01T06:48:11.495Z,3.55
2022-09-01T06:49:13.012Z,2.99
2022-09-01T06:50:09.223Z,2.66
2022-09-01T06:51:20.076Z,2.84
2022-09-01T06:52:11.083Z,2.89
2022-09-01T06:54:11.355Z,4.46
2022-09-01T06:55:13.441Z,2.48
2022-09-01T06:56:04.534Z,2.48
2022-09-01T06:58:09.545Z,1.95
2022-09-01T06:59:08.417Z,3.3
2022-09-01T07:00:16.120Z,3.05
2022-09-01T07:01:03.150Z,3.05
2022-09-01T07:02:06.471Z,1.95
2022-09-01T07:03:10.248Z,2.57
2022-09-01T07:04:12.712Z,2.57
2022-09-01T07:05:58.847Z,2.84
2022-09-01T07:06:03.000Z,2.16
2022-09-01T07:08:08.661Z,2.35
2022-09-01T07:09:38.667Z,1.4
2022-09-01T07:10:18.403Z,1.4
2022-09-01T07:12:07.102Z,2.49
2022-09-01T07:12:25.057Z,2.49
2022-09-01T07:13:10.514Z,2.21
2022-09-01T07:14:16.502Z,2.21
2022-09-01T07:16:34.743Z,3.11
2022-09-01T07:17:26.352Z,1.99
2022-09-01T07:18:11.833Z,1.15
2022-09-01T07:19:11.237Z,2.46
2022-09-01T07:20:28.458Z,5.18
2022-09-01T07:21:36.072Z,5.18
2022-09-01T07:22:09.565Z,3.32
2022-09-01T07:23:10.287Z,2.43
2022-09-01T07:24:08.028Z,4.44
2022-09-01T07:25:11.617Z,2.64
2022-09-01T07:26:09.528Z,2.64
2022-09-01T07:27:09.301Z,4.06
2022-09-01T07:28:08.345Z,2.2
2022-09-01T07:29:10.369Z,4.01
2022-09-01T07:30:13.913Z,4.09
2022-09-01T07:35:11.898Z,12.64
2022-09-01T07:43:40.447Z,3.07
2022-09-01T07:44:04.381Z,3.07
2022-09-01T07:48:03.795Z,1.52
2022-09-01T07:50:25.588Z,1.86
2022-09-01T07:51:36.344Z,1.86
2022-09-01T07:52:21.652Z,1.9
2022-09-01T07:53:04.231Z,1.9
2022-09-01T07:54:12.105Z,1.44
2022-09-01T07:55:03.062Z,1.79
2022-09-01T07:56:13.083Z,2.65
2022-09-01T07:57:08.756Z,2.65
2022-09-01T07:58:09.744Z,1.73
2022-09-01T07:59:14.687Z,1.53
2022-09-01T08:00:08.514Z,2.6
2022-09-01T08:01:11.370Z,2.29
2022-09-01T08:02:09.550Z,1.75
2022-09-01T08:03:10.549Z,1.44
2022-09-01T08:04:08.131Z,3.16
2022-09-01T08:05:10.996Z,2.48
2022-09-01T08:06:11.486Z,1.32
2022-09-01T08:07:15.319Z,1.32
2022-09-01T08:08:24.949Z,1.35
2022-09-01T08:09:32.851Z,1.35
2022-09-01T08:10:05.389Z,1.26
2022-09-01T08:11:07.946Z,1.66
2022-09-01T08:12:09.303Z,2.01
2022-09-01T08:13:15.507Z,2.14
2022-09-01T08:14:09.718Z,2.14
2022-09-01T08:15:37.909Z,2.2
2022-09-01T08:16:16.308Z,1.08
2022-09-01T08:18:14.727Z,1.56
2022-09-01T08:19:16.328Z,1.52
2022-09-01T08:20:10.357Z,1.71
2022-09-01T08:21:10.465Z,1.14
2022-09-01T08:22:03.054Z,1.14
2022-09-01T08:23:12.475Z,1.72
2022-09-01T08:24:05.441Z,1.72
2022-09-01T08:25:11.483Z,2.98
2022-09-01T08:26:10.975Z,2.98
2022-09-01T08:27:08.900Z,0.91
2022-09-01T08:28:09.958Z,1.27
2022-09-01T08:29:10.772Z,1.27
2022-09-01T08:30:11.559Z,1.56
2022-09-01T08:31:11.154Z,2.27
2022-09-01T08:32:10.965Z,2.11
2022-09-01T08:33:11.969Z,1.12
2022-09-01T08:34:06.353Z,1.12
2022-09-01T08:35:11.320Z,1.24
2022-09-01T08:36:10.089Z,2.93
2022-09-01T08:37:11.132Z,0.71
2022-09-01T08:38:08.356Z,0.71
2022-09-01T08:39:03.133Z,1.66
2022-09-01T08:40:06.192Z,1.66
2022-09-01T08:41:12.661Z,0.9
2022-09-01T08:42:11.688Z,0.9
2022-09-01T08:43:03.546Z,1.97
2022-09-01T08:44:12.651Z,3.52
2022-09-01T08:45:10.763Z,1.76
2022-09-01T08:46:13.060Z,1.76
2022-09-01T08:47:09.127Z,1.42
2022-09-01T08:48:36.956Z,1.02
2022-09-01T08:49:28.965Z,0.73
2022-09-01T08:50:08.752Z,0.73
2022-09-01T08:51:15.004Z,3.79
2022-09-01T08:52:03.928Z,3.79
2022-09-01T08:53:09.942Z,1.06
2022-09-01T08:54:12.110Z,1.06
2022-09-01T08:55:09.399Z,1.43
2022-09-01T08:56:10.410Z,1.43
2022-09-01T08:57:11.055Z,1.04
2022-09-01T08:58:12.169Z,1.96
2022-09-01T08:59:10.699Z,5.45
2022-09-01T09:00:11.787Z,0.57
2022-09-01T09:01:03.774Z,0.57
2022-09-01T09:02:10.572Z,1.45
2022-09-01T09:03:13.702Z,1.64
2022-09-01T09:04:08.936Z,1.64
2022-09-01T09:05:21.365Z,1.64
2022-09-01T09:06:09.953Z,2.47
2022-09-01T09:07:10.628Z,1.36
2022-09-01T09:08:12.677Z,1.51
2022-09-01T09:09:11.078Z,1.91
2022-09-01T09:10:03.938Z,1.91
2022-09-01T09:11:13.053Z,3.06
2022-09-01T09:12:10.721Z,1.89
2022-09-01T09:13:08.765Z,0.64
2022-09-01T09:14:04.935Z,0.64
2022-09-01T09:15:11.723Z,2.36
2022-09-01T09:16:09.714Z,1.13
2022-09-01T09:17:12.300Z,1.13
2022-09-01T09:18:19.932Z,1.28
2022-09-01T09:19:11.066Z,1.06
2022-09-01T09:20:10.771Z,0.96
2022-09-01T09:21:13.081Z,0.96
2022-09-01T09:22:07.564Z,0.49
2022-09-01T09:23:09.983Z,0.77
2022-09-01T09:24:08.932Z,0.72
2022-09-01T09:25:10.793Z,0.72
2022-09-01T09:26:09.044Z,1.62
2022-09-01T09:27:03.217Z,1.62
2022-09-01T09:28:11.283Z,1.22
2022-09-01T09:29:10.491Z,1.22
2022-09-01T09:30:13.075Z,0.38
2022-09-01T09:31:10.525Z,0.38
2022-09-01T09:32:39.703Z,3.44
2022-09-01T09:33:37.515Z,3.44
2022-09-01T09:35:11.059Z,0.79
2022-09-01T09:36:03.784Z,0.79
2022-09-01T09:37:11.587Z,0.88
2022-09-01T09:38:04.124Z,0.88
2022-09-01T09:39:12.533Z,2.04
2022-09-01T09:40:10.085Z,1.24
2022-09-01T09:41:18.203Z,1.06
2022-09-01T09:42:15.155Z,1.46
2022-09-01T09:43:10.524Z,1.46
2022-09-01T09:44:11.332Z,0.98
2022-09-01T09:45:11.894Z,0.98
2022-09-01T09:46:23.071Z,1.68
2022-09-01T09:47:33.659Z,1.68
2022-09-01T09:48:05.254Z,0.69
2022-09-01T09:49:11.646Z,1.33
2022-09-01T09:50:05.531Z,1.33
2022-09-01T09:51:07.545Z,1.13
2022-09-01T09:52:11.873Z,1.35
2022-09-01T09:53:09.928Z,1.71
2022-09-01T09:54:03.967Z,0.85
2022-09-01T09:55:15.468Z,0.99
2022-09-01T09:56:05.373Z,0.99
2022-09-01T09:57:09.730Z,0.62
2022-09-01T09:58:09.489Z,0.62
2022-09-01T09:59:11.265Z,1.02
2022-09-01T10:00:09.685Z,1.02
2022-09-01T10:01:12.017Z,0.59
2022-09-01T10:02:08.618Z,0.59
2022-09-01T10:03:12.428Z,1.68
2022-09-01T10:04:10.772Z,1.12
2022-09-01T10:05:08.795Z,1.12
2022-09-01T10:06:11.423Z,1.21
2022-09-01T10:07:07.791Z,1.21
2022-09-01T10:08:09.957Z,2.01
2022-09-01T10:09:17.757Z,1.44
2022-09-01T10:10:11.768Z,0.75
2022-09-01T10:11:10.930Z,1.08
2022-09-01T10:12:05.981Z,1.08
2022-09-01T10:13:16.038Z,1.27
2022-09-01T10:14:13.633Z,1.27
2022-09-01T10:15:12.504Z,0.53
2022-09-01T10:16:11.404Z,0.86
2022-09-01T10:17:11.785Z,0.86
2022-09-01T10:18:22.580Z,0.86
2022-09-01T10:19:12.974Z,1.91
2022-09-01T10:20:11.328Z,1.91
2022-09-01T10:22:11.878Z,0.64
2022-09-01T10:23:15.146Z,1.11
2022-09-01T10:24:59.593Z,1.11
2022-09-01T10:25:10.205Z,1.05
2022-09-01T10:26:13.839Z,0.44
2022-09-01T10:27:13.929Z,0.44
2022-09-01T10:28:10.816Z,0.91
2022-09-01T10:29:03.490Z,0.91
2022-09-01T10:30:12.582Z,0.98
2022-09-01T10:31:03.075Z,0.98
2022-09-01T10:32:30.917Z,1.24
2022-09-01T10:33:19.014Z,1.24
2022-09-01T10:34:11.405Z,0.85
2022-09-01T10:35:12.228Z,0.9
2022-09-01T10:36:12.767Z,1.45
2022-09-01T10:37:15.948Z,0.85
2022-09-01T10:38:02.993Z,0.85
2022-09-01T10:39:15.754Z,2.05
2022-09-01T10:40:04.139Z,2.05
2022-09-01T10:41:14.671Z,1.01
2022-09-01T10:42:08.158Z,1.18
2022-09-01T10:43:12.384Z,2.23
2022-09-01T10:44:11.410Z,1.29
2022-09-01T10:45:09.544Z,0.81
2022-09-01T10:46:09.184Z,0.81
2022-09-01T10:47:13.472Z,0.89
2022-09-01T10:48:14.051Z,0.65
2022-09-01T10:49:09.999Z,0.65
2022-09-01T10:50:11.139Z,0.88
2022-09-01T10:51:09.387Z,0.96
2022-09-01T10:52:13.114Z,0.94
2022-09-01T10:53:10.567Z,1.08
2022-09-01T10:54:09.295Z,1.33
2022-09-01T10:55:09.130Z,1.33
2022-09-01T10:56:19.963Z,1.46
2022-09-01T10:57:12.151Z,1.46
2022-09-01T10:59:29.966Z,1.55
2022-09-01T11:01:13.395Z,0.72
2022-09-01T11:02:28.328Z,0.85
2022-09-01T11:04:14.645Z,1.15
2022-09-01T11:05:04.953Z,1.15
2022-09-01T11:06:12.728Z,1.49
2022-09-01T11:07:12.838Z,1.49
2022-09-01T11:08:15.651Z,0.95
2022-09-01T11:09:11.116Z,1.04
2022-09-01T11:10:11.923Z,1.04
2022-09-01T11:11:09.022Z,4.24
2022-09-01T11:12:12.294Z,0.98
2022-09-01T11:13:03.352Z,0.98
2022-09-01T11:14:13.862Z,0.86
2022-09-01T11:15:09.619Z,1
2022-09-01T11:16:10.127Z,1.08
2022-09-01T11:17:09.397Z,0.93
2022-09-01T11:18:09.331Z,0.93
2022-09-01T11:19:14.012Z,0.54
2022-09-01T11:20:10.183Z,0.74
2022-09-01T11:21:12.869Z,0.74
2022-09-01T11:22:04.285Z,0.95
2022-09-01T11:23:11.789Z,0.94
2022-09-01T11:24:09.391Z,0.94
2022-09-01T11:25:12.369Z,1.02
2022-09-01T11:26:25.998Z,1.02
2022-09-01T11:27:10.772Z,1.29
2022-09-01T11:28:08.877Z,1.29
2022-09-01T11:29:11.290Z,0.85
2022-09-01T11:30:05.239Z,0.85
2022-09-01T11:31:12.167Z,1.78
2022-09-01T11:32:10.354Z,1.57
2022-09-01T11:33:08.867Z,1.57
2022-09-01T11:34:02.918Z,0.38
2022-09-01T11:35:09.399Z,0.38
2022-09-01T11:36:10.177Z,0.86
2022-09-01T11:37:10.443Z,0.79
2022-09-01T11:38:08.989Z,0.59
2022-09-01T11:39:15.667Z,1.56
2022-09-01T11:40:04.220Z,1.56
2022-09-01T11:41:08.727Z,1.94
2022-09-01T11:42:08.577Z,0.83
2022-09-01T11:43:12.707Z,0.51
2022-09-01T11:44:08.175Z,0.51
2022-09-01T11:45:11.519Z,1.25
2022-09-01T11:46:10.032Z,1.25
2022-09-01T11:47:14.459Z,1.01
2022-09-01T11:48:03.547Z,1.01
2022-09-01T11:49:11.251Z,0.58
2022-09-01T11:50:08.114Z,1.16
2022-09-01T11:51:14.681Z,0.48
2022-09-01T11:52:05.002Z,0.62
2022-09-01T11:53:09.757Z,0.62
2022-09-01T11:54:07.746Z,0.61
2022-09-01T11:55:11.591Z,0.61
2022-09-01T11:56:02.985Z,1.14
2022-09-01T11:57:06.140Z,1.14
2022-09-01T11:58:09.317Z,1.14
2022-09-01T11:59:10.331Z,0.64
2022-09-01T12:00:09.252Z,0.77
2022-09-01T12:01:09.733Z,0.77
2022-09-01T12:02:07.882Z,0.82
2022-09-01T12:03:10.217Z,0.96
2022-09-01T12:04:11.883Z,0.84
2022-09-01T12:05:10.075Z,0.84
2022-09-01T12:06:15.434Z,1.38
2022-09-01T12:07:04.440Z,1.38
2022-09-01T12:08:10.227Z,1.07
2022-09-01T12:09:15.027Z,0.79
2022-09-01T12:10:09.602Z,0.79
2022-09-01T12:11:12.281Z,1.35
2022-09-01T12:12:10.376Z,1.35
2022-09-01T12:13:09.969Z,1.22
2022-09-01T12:14:11.727Z,1.74
2022-09-01T12:15:09.254Z,1.74
2022-09-01T12:16:21.466Z,0.99
2022-09-01T12:17:11.895Z,0.75
2022-09-01T12:18:07.683Z,0.69
2022-09-01T12:19:11.325Z,1.92
2022-09-01T12:20:02.401Z,1.31
2022-09-01T12:21:09.670Z,1.45
2022-09-01T12:22:10.939Z,0.74
2022-09-01T12:23:08.642Z,1.55
2022-09-01T12:24:07.779Z,0.97
2022-09-01T12:25:07.254Z,0.97
2022-09-01T12:26:08.738Z,1.06
2022-09-01T12:27:10.753Z,0.53
2022-09-01T12:28:10.924Z,0.53
2022-09-01T12:29:11.062Z,1.04
2022-09-01T12:30:09.191Z,1.04
2022-09-01T12:31:09.731Z,0.99
2022-09-01T12:32:12.346Z,0.56
2022-09-01T12:34:11.568Z,0.58
2022-09-01T12:35:09.546Z,0.58
2022-09-01T12:36:09.880Z,0.69
2022-09-01T12:37:06.260Z,0.69
2022-09-01T12:38:11.186Z,1.74
2022-09-01T12:39:12.891Z,0.72
2022-09-01T12:40:05.455Z,0.72
2022-09-01T12:41:16.275Z,0.75
2022-09-01T12:42:05.324Z,0.75
2022-09-01T12:43:11.824Z,0.74
2022-09-01T12:44:10.479Z,0.74
2022-09-01T12:45:10.110Z,0.41
2022-09-01T12:46:09.916Z,0.61
2022-09-01T12:47:11.708Z,1.49
2022-09-01T12:48:12.762Z,1.49
2022-09-01T12:49:20.793Z,0.76
2022-09-01T12:50:05.018Z,0.76
2022-09-01T12:51:10.346Z,1.03
2022-09-01T12:52:09.921Z,0.51
2022-09-01T12:53:12.603Z,0.74
2022-09-01T12:54:09.700Z,0.74
2022-09-01T12:55:09.381Z,0.95
2022-09-01T12:56:11.973Z,0.78
2022-09-01T12:57:09.206Z,0.78
2022-09-01T12:58:11.769Z,1.28
2022-09-01T12:59:14.456Z,1.28
2022-09-01T13:00:05.496Z,1.76
2022-09-01T13:01:16.114Z,0.82
2022-09-01T13:02:10.712Z,0.82
2022-09-01T13:03:09.678Z,0.66
2022-09-01T13:04:13.029Z,0.8
2022-09-01T13:05:12.290Z,0.76
2022-09-01T13:06:09.366Z,0.76
2022-09-01T13:07:10.175Z,0.72
2022-09-01T13:08:08.336Z,0.72
2022-09-01T13:09:10.873Z,1.14
2022-09-01T13:10:09.387Z,1.14
2022-09-01T13:11:09.170Z,0.95
2022-09-01T13:12:10.766Z,0.96
2022-09-01T13:13:09.477Z,0.66
2022-09-01T13:14:10.524Z,0.85
2022-09-01T13:15:15.575Z,0.68
2022-09-01T13:16:06.188Z,0.45
2022-09-01T13:17:10.108Z,0.45
2022-09-01T13:18:11.636Z,1.18
2022-09-01T13:19:10.826Z,0.52
2022-09-01T13:20:08.570Z,0.89
2022-09-01T13:21:03.571Z,0.89
2022-09-01T13:22:11.442Z,0.68
2022-09-01T13:23:09.725Z,0.68
2022-09-01T13:24:10.097Z,0.69
2022-09-01T13:25:12.913Z,0.69
2022-09-01T13:26:04.006Z,1.83
2022-09-01T13:27:25.137Z,0.85
2022-09-01T13:28:09.700Z,0.85
2022-09-01T13:29:11.057Z,1.28
2022-09-01T13:30:03.867Z,1.28
2022-09-01T13:32:18.595Z,0.39
2022-09-01T13:33:23.202Z,0.39
2022-09-01T13:34:10.575Z,0.86
2022-09-01T13:35:10.241Z,0.86
2022-09-01T13:37:06.987Z,0.76
2022-09-01T13:38:09.501Z,0.53
2022-09-01T13:39:15.396Z,0.82
2022-09-01T13:40:04.280Z,0.82
2022-09-01T13:41:10.607Z,0.89
2022-09-01T13:42:09.461Z,0.58
2022-09-01T13:43:10.761Z,1.16
2022-09-01T13:44:08.830Z,0.49
2022-09-01T13:45:08.115Z,2.59
2022-09-01T13:46:10.627Z,0.65
2022-09-01T13:48:17.549Z,0.89
2022-09-01T13:50:11.907Z,0.96
2022-09-01T13:51:18.622Z,0.75